METAR Data
IDs: Format: Raw Decoded Include TAF

Data at: 0120 UTC 10 Dec 2022

METAR for:KVTA (Newark/Heath Arpt, OH, US)
Text:KVTA 100054Z AUTO 00000KT 7SM -RA OVC030 06/04 A3014 RMK AO2 SLP211 P0006 T00610039 $
Temperature: 6.1°C ( 43°F)
Dewpoint: 3.9°C ( 39°F) [RH = 86%]
Pressure (altimeter):30.14 inches Hg (1020.7 mb) [Sea level pressure: 1021.1 mb]
Winds:calm
Visibility: 7 sm ( 11 km)
Ceiling:3000 feet AGL
Clouds: overcast cloud deck at 3000 feet AGL
Weather:-RA (light rain)
QC Flag:automated observation with no human augmentation; SOME DATA ABOVE MAY BE INACCURATE!!!"$" is an indication the sensor requires maintenance.